createdAt,value
2022-11-04T07:29:17.037Z,112
2022-11-04T07:34:17.695Z,112
2022-11-04T07:39:17.535Z,202
2022-11-04T07:44:17.922Z,202
2022-11-04T07:49:17.130Z,248
2022-11-04T07:54:17.278Z,248
2022-11-04T07:59:17.402Z,225
2022-11-04T08:04:17.550Z,225
2022-11-04T08:09:17.989Z,225
2022-11-04T08:14:17.182Z,225
2022-11-04T08:19:17.843Z,180
2022-11-04T08:24:17.695Z,180
2022-11-04T08:29:17.833Z,202
2022-11-04T08:34:17.118Z,202
2022-11-04T08:39:17.572Z,202
2022-11-04T08:44:17.869Z,202
2022-11-04T08:49:21.760Z,202
2022-11-04T08:54:17.706Z,202
2022-11-04T08:59:18.053Z,225
2022-11-04T09:04:18.009Z,225
2022-11-04T09:09:18.128Z,180
2022-11-04T09:14:18.069Z,180
2022-11-04T09:19:17.712Z,180
2022-11-04T09:24:17.664Z,180
2022-11-04T09:29:17.997Z,202
2022-11-04T09:34:17.220Z,202
2022-11-04T09:39:17.832Z,225
2022-11-04T09:44:18.132Z,225
2022-11-04T09:49:17.400Z,225
2022-11-04T09:54:17.684Z,225
2022-11-04T09:59:18.170Z,225
2022-11-04T10:04:17.609Z,225
2022-11-04T10:09:17.987Z,202
2022-11-04T10:14:18.023Z,202
2022-11-04T10:19:17.289Z,225
2022-11-04T10:24:18.024Z,225
2022-11-04T10:29:17.154Z,202
2022-11-04T10:34:17.472Z,202
2022-11-04T10:39:17.961Z,248
2022-11-04T10:44:17.285Z,248
2022-11-04T10:49:17.651Z,248
2022-11-04T10:54:17.841Z,248
2022-11-04T10:59:20.884Z,202
2022-11-04T11:04:17.527Z,202
2022-11-04T11:09:18.101Z,225
2022-11-04T11:14:17.433Z,225
2022-11-04T11:19:17.685Z,248
2022-11-04T11:24:18.113Z,248
2022-11-04T11:29:17.473Z,225
2022-11-04T11:34:17.951Z,225
2022-11-04T11:39:18.056Z,248
2022-11-04T11:44:17.547Z,248
2022-11-04T11:49:17.725Z,225
2022-11-04T11:54:18.113Z,225
2022-11-04T12:09:23.993Z,292
2022-11-04T12:14:18.192Z,292
2022-11-04T12:19:17.434Z,270
2022-11-04T12:24:17.654Z,270
2022-11-04T12:29:17.585Z,270
2022-11-04T12:34:17.992Z,270
2022-11-04T12:39:18.033Z,248
2022-11-04T12:44:18.122Z,248
2022-11-04T12:49:17.327Z,225
2022-11-04T12:54:17.601Z,225
2022-11-04T12:59:17.749Z,270
2022-11-04T13:04:17.907Z,270
2022-11-04T13:09:18.177Z,225
2022-11-04T13:14:18.184Z,225
2022-11-04T13:19:17.330Z,248
2022-11-04T13:24:17.761Z,248
2022-11-04T13:29:18.021Z,248
2022-11-04T13:34:23.604Z,248
2022-11-04T13:39:17.931Z,248
2022-11-04T13:44:17.965Z,248
2022-11-04T13:49:17.559Z,270
2022-11-04T13:54:17.971Z,270
2022-11-04T13:59:18.418Z,270
2022-11-04T14:04:17.983Z,270
2022-11-04T14:09:18.208Z,225
2022-11-04T14:14:17.467Z,225
2022-11-04T14:19:17.794Z,225
2022-11-04T14:24:17.939Z,225
2022-11-04T14:29:18.040Z,225
2022-11-04T14:34:17.634Z,225
2022-11-04T14:39:17.852Z,315
2022-11-04T14:44:18.166Z,315
2022-11-04T14:49:17.249Z,292
2022-11-04T14:54:17.735Z,292
2022-11-04T14:59:17.834Z,338
2022-11-04T15:04:18.035Z,338
2022-11-04T15:09:18.112Z,292
2022-11-04T15:14:17.656Z,292
2022-11-04T15:19:17.659Z,292
2022-11-04T15:24:18.288Z,292
2022-11-04T15:29:18.076Z,292
2022-11-04T15:34:17.709Z,292
2022-11-04T15:39:17.615Z,225
2022-11-04T15:44:17.731Z,225
2022-11-04T15:49:17.695Z,225
2022-11-04T15:54:18.093Z,225
2022-11-04T15:59:18.343Z,225
2022-11-04T16:04:17.658Z,225
2022-11-04T16:09:17.921Z,225
2022-11-04T16:14:18.235Z,225
2022-11-04T16:19:23.738Z,225
2022-11-04T16:24:17.638Z,225
2022-11-04T16:29:17.929Z,248
2022-11-04T16:34:18.259Z,248
2022-11-04T16:39:17.534Z,248
2022-11-04T16:44:17.701Z,248
2022-11-04T16:49:17.897Z,225
2022-11-04T16:54:18.264Z,225
2022-11-04T16:59:18.403Z,225
2022-11-04T17:04:17.501Z,225
2022-11-04T17:09:18.204Z,292
2022-11-04T17:14:18.040Z,292
2022-11-04T17:19:17.525Z,270
2022-11-04T17:24:17.719Z,270
2022-11-04T17:29:17.912Z,202
2022-11-04T17:34:18.328Z,202
